Time;durP1;ratioP1;P1;durP2;ratioP2;P2;SDS_P1;SDS_P2;PMS_P1;PMS_P2;Temp;Humidity;BMP_temperature;BMP_pressure;BME280_temperature;BME280_humidity;BME280_pressure;Samples;Min_cycle;Max_cycle;Signal;HPM_P1;HPM_P2
2021/12/29 00:02:06;;;;;;;15.93;4.82;;;;;;;8.70;98.63;99978.56;5093284;28;20107;-69
2021/12/29 00:04:31;;;;;;;11.82;4.53;;;;;;;8.66;97.73;99985.09;5075197;28;20063;-69
2021/12/29 00:06:58;;;;;;;16.83;5.25;;;;;;;8.67;98.25;99991.84;5075827;28;20059;-69
2021/12/29 00:09:23;;;;;;;14.63;6.13;;;;;;;8.70;98.43;99996.59;5075256;28;20031;-69
2021/12/29 00:11:49;;;;;;;23.50;6.88;;;;;;;8.61;98.82;99997.75;5075771;28;20020;-69
2021/12/29 00:14:15;;;;;;;18.75;6.93;;;;;;;8.64;98.24;100012.03;5093887;28;20092;-70
2021/12/29 00:16:40;;;;;;;22.58;7.60;;;;;;;8.65;98.37;100026.50;5093905;28;20026;-69
2021/12/29 00:19:06;;;;;;;27.17;8.07;;;;;;;8.71;98.53;100028.31;5075669;28;20024;-70
2021/12/29 00:21:33;;;;;;;21.60;8.07;;;;;;;8.67;98.49;100040.78;5093761;28;20032;-70
2021/12/29 00:23:59;;;;;;;21.25;7.75;;;;;;;8.61;98.99;100038.19;5075586;28;20028;-70
2021/12/29 00:26:26;;;;;;;20.55;8.10;;;;;;;8.64;98.87;100038.59;5093636;28;20028;-70
2021/12/29 00:28:52;;;;;;;23.20;7.70;;;;;;;8.58;99.09;100050.44;5093675;28;20103;-70
2021/12/29 00:31:18;;;;;;;20.70;7.72;;;;;;;8.65;99.00;100062.56;5075528;28;20115;-70
2021/12/29 00:33:43;;;;;;;24.92;7.82;;;;;;;8.59;98.74;100070.06;5075518;28;20024;-70
2021/12/29 00:36:09;;;;;;;17.25;7.03;;;;;;;8.59;98.52;100080.34;5093597;28;20028;-71
2021/12/29 00:38:34;;;;;;;22.55;6.93;;;;;;;8.63;98.73;100078.22;5075430;28;20026;-70
2021/12/29 00:40:59;;;;;;;26.05;7.47;;;;;;;8.66;98.67;100082.16;5075516;28;20023;-70
2021/12/29 00:43:25;;;;;;;17.27;6.85;;;;;;;8.64;98.61;100084.16;5094056;28;20032;-70
2021/12/29 00:45:51;;;;;;;19.92;6.80;;;;;;;8.62;98.88;100099.00;5093554;28;20565;-70
2021/12/29 00:48:18;;;;;;;21.90;6.57;;;;;;;8.64;98.20;100104.75;5093469;28;20020;-70
2021/12/29 00:50:43;;;;;;;19.40;6.18;;;;;;;8.66;98.36;100113.06;5093499;28;20493;-71
2021/12/29 00:53:09;;;;;;;18.48;6.65;;;;;;;8.62;98.17;100117.81;5093338;28;20028;-70
2021/12/29 00:55:35;;;;;;;16.60;6.57;;;;;;;8.58;98.80;100119.97;5093255;28;20123;-70
2021/12/29 00:58:02;;;;;;;19.30;6.85;;;;;;;8.59;98.65;100116.41;5093387;28;20047;-70
2021/12/29 01:00:28;;;;;;;25.58;7.55;;;;;;;8.53;98.70;100111.22;5075272;28;20023;-70
2021/12/29 01:02:53;;;;;;;22.55;7.00;;;;;;;8.55;99.27;100128.09;5075172;28;20016;-70
2021/12/29 01:05:19;;;;;;;28.00;7.55;;;;;;;8.54;98.44;100126.47;5093226;28;20077;-70
2021/12/29 01:07:49;;;;;;;23.42;6.93;;;;;;;8.53;99.11;100142.94;5076434;28;20024;-70
2021/12/29 01:10:14;;;;;;;21.80;7.22;;;;;;;8.62;98.56;100147.94;5097339;28;20066;-70
2021/12/29 01:12:46;;;;;;;26.95;7.65;;;;;;;8.62;97.99;100159.03;5097266;28;20020;-71
2021/12/29 01:15:15;;;;;;;20.92;6.65;;;;;;;8.60;98.87;100166.13;5097831;28;20111;-71
2021/12/29 01:17:40;;;;;;;23.13;8.00;;;;;;;8.54;98.40;100183.13;5097252;28;20028;-70
2021/12/29 01:20:06;;;;;;;19.02;7.50;;;;;;;8.62;98.80;100189.94;5097472;28;20081;-70
2021/12/29 01:22:31;;;;;;;19.55;6.90;;;;;;;8.61;98.67;100195.28;5078945;28;20035;-70
2021/12/29 01:24:56;;;;;;;21.55;7.72;;;;;;;8.59;98.61;100201.41;5078833;28;20031;-69
2021/12/29 01:27:22;;;;;;;19.02;7.25;;;;;;;8.65;98.38;100194.72;5096886;28;20028;-69
2021/12/29 01:29:47;;;;;;;27.55;7.38;;;;;;;8.70;98.38;100207.81;5096885;28;20043;-69
2021/12/29 01:32:13;;;;;;;18.90;7.22;;;;;;;8.61;97.82;100210.75;5096907;28;20383;-70
2021/12/29 01:34:38;;;;;;;22.15;7.43;;;;;;;8.64;98.39;100220.66;5096856;28;20047;-70
2021/12/29 01:37:03;;;;;;;15.98;6.57;;;;;;;8.68;97.93;100214.94;5078705;28;20016;-70
2021/12/29 01:39:29;;;;;;;18.83;6.63;;;;;;;8.75;98.15;100213.22;5096834;28;20068;-70
2021/12/29 01:41:57;;;;;;;18.13;6.68;;;;;;;8.71;97.14;100217.13;5078651;28;20148;-70
2021/12/29 01:44:24;;;;;;;19.63;6.95;;;;;;;8.69;97.87;100219.13;5096669;28;20054;-70
2021/12/29 01:46:51;;;;;;;15.35;6.80;;;;;;;8.66;97.38;100229.81;5096577;28;20378;-69
2021/12/29 01:49:17;;;;;;;17.70;7.82;;;;;;;8.69;98.17;100236.34;5096635;28;20020;-70
2021/12/29 01:51:50;;;;;;;24.90;7.68;;;;;;;8.66;97.70;100236.72;5096548;28;20031;-70
2021/12/29 01:54:23;;;;;;;;;;;;;;;8.66;97.44;100234.13;5096821;28;20020;-70
2021/12/29 01:56:56;;;;;;;25.17;8.40;;;;;;;8.72;98.04;100241.94;5096945;28;19938;-69
2021/12/29 01:59:22;;;;;;;29.35;9.30;;;;;;;8.68;97.77;100245.06;5096623;28;20048;-70
2021/12/29 02:01:47;;;;;;;23.13;8.98;;;;;;;8.74;97.93;100250.25;5096245;28;20024;-69
2021/12/29 02:04:13;;;;;;;27.80;8.98;;;;;;;8.76;97.22;100247.50;5078290;28;20493;-70
2021/12/29 02:06:39;;;;;;;25.55;9.18;;;;;;;8.71;97.03;100250.63;5078002;28;20103;-69
2021/12/29 02:09:05;;;;;;;23.58;8.90;;;;;;;8.73;96.85;100258.19;5096079;28;20524;-69
2021/12/29 02:11:33;;;;;;;18.42;8.35;;;;;;;8.75;97.12;100263.94;5077971;28;20032;-69
2021/12/29 02:14:01;;;;;;;25.85;8.32;;;;;;;8.71;97.06;100262.72;5095956;28;20474;-69
2021/12/29 02:16:27;;;;;;;22.27;9.10;;;;;;;8.73;96.80;100268.47;5095960;28;20101;-70
2021/12/29 02:18:55;;;;;;;26.70;8.98;;;;;;;8.75;97.06;100267.31;5095264;28;20112;-70
2021/12/29 02:21:22;;;;;;;31.05;9.20;;;;;;;8.80;97.24;100277.88;5095729;28;20043;-71
2021/12/29 02:24:05;;;;;;;23.38;9.18;;;;;;;8.74;96.59;100276.00;5077627;28;20024;-71
2021/12/29 02:26:32;;;;;;;28.25;9.60;;;;;;;8.74;97.06;100285.53;5096311;28;20027;-71
2021/12/29 02:29:01;;;;;;;29.58;9.20;;;;;;;8.70;97.55;100282.53;5095652;28;20402;-71
2021/12/29 02:31:27;;;;;;;27.25;9.27;;;;;;;8.74;97.23;100280.38;5095642;28;20028;-70
2021/12/29 02:33:53;;;;;;;26.50;9.65;;;;;;;8.71;97.21;100280.75;5096132;28;20027;-70
2021/12/29 02:36:19;;;;;;;26.90;10.05;;;;;;;8.74;96.95;100280.38;5095563;28;20379;-71
2021/12/29 02:38:56;;;;;;;28.25;10.20;;;;;;;8.71;97.22;100265.28;5077417;28;20036;-70
2021/12/29 02:41:24;;;;;;;30.52;9.75;;;;;;;8.77;97.29;100273.06;5095781;28;20115;-70
2021/12/29 02:43:58;;;;;;;34.72;11.48;;;;;;;8.73;97.02;100276.22;5077403;28;20032;-70
2021/12/29 02:46:24;;;;;;;34.63;10.30;;;;;;;8.79;96.80;100285.78;5077212;28;20020;-69
2021/12/29 02:49:02;;;;;;;28.95;9.90;;;;;;;8.72;96.84;100272.84;5095268;28;20432;-69
2021/12/29 02:51:31;;;;;;;29.20;10.48;;;;;;;8.75;96.35;100287.13;5095403;28;20024;-69
2021/12/29 02:53:57;;;;;;;33.17;10.45;;;;;;;8.74;96.65;100286.31;5095199;28;20474;-69
2021/12/29 02:56:24;;;;;;;33.58;9.77;;;;;;;8.80;96.59;100295.91;5077549;28;20110;-69
2021/12/29 02:58:49;;;;;;;24.75;9.98;;;;;;;8.83;96.30;100286.97;5074941;28;20514;-69
2021/12/29 03:01:17;;;;;;;35.63;10.23;;;;;;;8.84;95.89;100296.31;5074924;28;20024;-70
2021/12/29 03:03:42;;;;;;;36.35;10.23;;;;;;;8.88;96.51;100312.19;5074774;28;20033;-70
2021/12/29 03:06:09;;;;;;;30.90;10.25;;;;;;;8.84;95.51;100316.94;5074980;28;20112;-70
2021/12/29 03:08:34;;;;;;;32.75;10.00;;;;;;;8.73;96.27;100307.13;5056909;28;20024;-70
2021/12/29 03:11:00;;;;;;;29.55;9.55;;;;;;;8.88;96.38;100322.50;5056581;28;20360;-69
2021/12/29 03:13:28;;;;;;;36.55;9.55;;;;;;;8.88;96.32;100337.97;5074483;28;20141;-72
2021/12/29 03:15:54;;;;;;;36.58;9.45;;;;;;;8.86;95.99;100329.59;5056436;28;20024;-69
2021/12/29 03:18:19;;;;;;;31.63;9.40;;;;;;;8.76;96.07;100337.66;5074391;28;20091;-69
2021/12/29 03:20:46;;;;;;;31.02;9.35;;;;;;;8.73;96.75;100330.31;5056437;28;20035;-71
2021/12/29 03:23:12;;;;;;;33.47;9.50;;;;;;;8.79;96.48;100347.59;5056435;28;20519;-70
2021/12/29 03:25:38;;;;;;;30.70;10.07;;;;;;;8.81;97.04;100356.75;5074316;28;20020;-70
2021/12/29 03:28:04;;;;;;;27.60;9.18;;;;;;;8.82;96.31;100363.47;5074163;28;20027;-70
2021/12/29 03:30:33;;;;;;;36.95;10.07;;;;;;;8.75;96.29;100361.84;5074093;28;20028;-70
2021/12/29 03:33:04;;;;;;;33.65;9.02;;;;;;;8.86;96.21;100381.16;5074202;28;20021;-70
2021/12/29 03:35:34;;;;;;;28.45;8.23;;;;;;;8.87;95.95;100383.56;5074239;28;20028;-70
2021/12/29 03:38:02;;;;;;;30.08;6.47;;;;;;;8.86;95.73;100392.28;5073948;28;20027;-70
2021/12/29 03:40:27;;;;;;;23.50;6.00;;;;;;;8.81;96.01;100400.53;5056032;28;20059;-70
2021/12/29 03:42:53;;;;;;;24.63;5.53;;;;;;;8.85;96.17;100406.13;5073967;28;20123;-70
2021/12/29 03:45:19;;;;;;;16.98;4.32;;;;;;;8.80;95.57;100401.53;5073940;28;20383;-70
2021/12/29 03:47:44;;;;;;;19.02;4.15;;;;;;;8.81;95.74;100392.81;5055935;28;20024;-70
2021/12/29 03:50:10;;;;;;;19.73;3.97;;;;;;;8.90;95.76;100398.66;5055992;28;20094;-70
2021/12/29 03:52:35;;;;;;;17.45;3.42;;;;;;;8.85;95.39;100395.81;5073825;28;20025;-70
2021/12/29 03:55:00;;;;;;;19.27;3.80;;;;;;;8.76;95.59;100405.44;5061867;28;20043;-70
2021/12/29 03:57:25;;;;;;;20.20;3.47;;;;;;;8.77;95.84;100407.03;5075862;28;20028;-70
2021/12/29 03:59:51;;;;;;;24.45;3.70;;;;;;;8.82;96.24;100414.22;5094249;28;20031;-70
2021/12/29 04:02:16;;;;;;;15.95;3.33;;;;;;;8.78;96.17;100416.38;5094099;28;20027;-70
2021/12/29 04:04:42;;;;;;;22.50;3.50;;;;;;;8.78;96.51;100410.44;5094059;28;20032;-70
2021/12/29 04:07:07;;;;;;;18.00;4.20;;;;;;;8.80;96.47;100411.03;5075837;28;20396;-70
2021/12/29 04:09:32;;;;;;;16.42;3.50;;;;;;;8.77;96.69;100413.97;5093952;28;20112;-69
2021/12/29 04:11:58;;;;;;;17.92;3.78;;;;;;;8.72;96.85;100400.88;5075811;28;20058;-70
2021/12/29 04:14:26;;;;;;;21.45;4.13;;;;;;;8.78;97.20;100411.22;5094463;28;20056;-70
2021/12/29 04:16:52;;;;;;;23.80;4.75;;;;;;;8.70;96.95;100419.06;5093892;28;20020;-69
2021/12/29 04:19:29;;;;;;;16.15;3.80;;;;;;;8.66;97.43;100417.84;5093822;28;20083;-69
2021/12/29 04:21:57;;;;;;;16.27;4.25;;;;;;;8.71;97.35;100422.44;5075684;28;20476;-69
2021/12/29 04:24:23;;;;;;;18.70;3.70;;;;;;;8.74;97.56;100424.63;5075627;28;20059;-70
2021/12/29 04:26:48;;;;;;;12.13;3.65;;;;;;;8.73;97.09;100415.31;5093652;28;20107;-69
2021/12/29 04:29:14;;;;;;;17.30;3.90;;;;;;;8.73;97.18;100410.97;5075671;28;20424;-69
2021/12/29 04:31:40;;;;;;;10.93;3.55;;;;;;;8.69;97.43;100414.91;5093699;28;20103;-70
2021/12/29 04:34:06;;;;;;;15.27;4.22;;;;;;;8.68;97.86;100422.81;5075534;28;20039;-69
2021/12/29 04:36:32;;;;;;;9.43;3.42;;;;;;;8.70;97.88;100431.16;5093622;28;20028;-69
2021/12/29 04:38:58;;;;;;;12.75;3.58;;;;;;;8.73;97.97;100439.31;5075505;28;20520;-69
2021/12/29 04:41:24;;;;;;;11.30;3.50;;;;;;;8.71;98.10;100433.53;5093572;28;20095;-70
2021/12/29 04:43:49;;;;;;;11.52;3.20;;;;;;;8.74;98.09;100447.81;5092982;28;20028;-70
2021/12/29 04:46:17;;;;;;;14.05;3.45;;;;;;;8.73;97.66;100448.81;5093481;28;20027;-69
2021/12/29 04:48:49;;;;;;;12.30;3.40;;;;;;;8.76;97.95;100459.56;5093486;28;20385;-69
2021/12/29 04:51:22;;;;;;;6.32;2.72;;;;;;;8.71;97.75;100459.28;5094069;28;20060;-69
2021/12/29 04:53:48;;;;;;;8.30;2.85;;;;;;;8.68;98.60;100461.44;5093896;28;20030;-69
2021/12/29 04:56:15;;;;;;;10.90;3.10;;;;;;;8.69;97.90;100460.44;5075108;28;20044;-69
2021/12/29 04:58:41;;;;;;;8.20;2.47;;;;;;;8.67;98.08;100462.44;5093414;28;20050;-69
2021/12/29 05:01:06;;;;;;;8.30;2.60;;;;;;;8.67;98.53;100465.00;5093365;28;20089;-69
2021/12/29 05:03:31;;;;;;;7.75;2.60;;;;;;;8.71;98.23;100467.03;5093320;28;20032;-69
2021/12/29 05:08:31;;;;;;;7.40;2.00;;;;;;;8.73;98.03;100464.28;5093327;28;20032;-69
2021/12/29 05:11:03;;;;;;;7.20;2.15;;;;;;;8.66;98.27;100464.22;5074983;28;20031;-69
2021/12/29 05:13:31;;;;;;;9.68;2.90;;;;;;;8.66;98.14;100471.94;5093180;28;20364;-69
2021/12/29 05:15:57;;;;;;;9.15;2.80;;;;;;;8.64;98.31;100468.75;5093536;28;20028;-69
2021/12/29 05:18:24;;;;;;;5.95;2.22;;;;;;;8.58;98.55;100475.41;5093091;28;20438;-69
2021/12/29 05:20:50;;;;;;;6.03;2.00;;;;;;;8.59;98.16;100476.22;5074985;28;20027;-68
2021/12/29 05:23:15;;;;;;;9.00;2.20;;;;;;;8.62;98.47;100478.41;5074936;28;20020;-69
2021/12/29 05:25:41;;;;;;;7.93;1.95;;;;;;;8.65;97.79;100479.84;5074958;28;20028;-69
2021/12/29 05:28:07;;;;;;;6.25;1.92;;;;;;;8.64;97.95;100485.97;5092876;28;20082;-69
2021/12/29 05:30:33;;;;;;;7.00;2.00;;;;;;;8.56;98.34;100486.88;5092966;28;20393;-69
2021/12/29 05:32:58;;;;;;;4.57;1.92;;;;;;;8.59;98.37;100494.25;5075055;28;20584;-69
2021/12/29 05:35:24;;;;;;;5.65;2.00;;;;;;;8.58;98.56;100490.06;5092938;28;20103;-69
2021/12/29 05:37:49;;;;;;;7.38;2.10;;;;;;;8.51;98.59;100491.75;5093486;28;20024;-69
2021/12/29 05:40:15;;;;;;;7.30;2.15;;;;;;;8.59;98.27;100500.19;5092944;28;20386;-69
2021/12/29 05:42:41;;;;;;;7.88;2.45;;;;;;;8.60;98.37;100506.13;5093192;28;20028;-69
2021/12/29 05:45:10;;;;;;;8.93;2.67;;;;;;;8.59;97.93;100502.75;5074767;28;20394;-69
2021/12/29 05:47:36;;;;;;;9.93;3.08;;;;;;;8.65;98.24;100506.41;5074690;28;20024;-69
2021/12/29 05:50:04;;;;;;;11.18;3.13;;;;;;;8.72;97.96;100509.84;5074641;28;20028;-69
2021/12/29 05:52:29;;;;;;;15.20;4.05;;;;;;;8.64;97.85;100501.44;5092612;28;20051;-69
2021/12/29 05:54:55;;;;;;;15.07;3.40;;;;;;;8.70;97.43;100504.06;5075885;28;20063;-69
2021/12/29 05:57:20;;;;;;;16.17;4.00;;;;;;;8.66;97.60;100504.59;5096409;28;20026;-69
2021/12/29 05:59:45;;;;;;;19.73;4.10;;;;;;;8.63;97.38;100508.38;5078019;28;20101;-69
2021/12/29 06:02:11;;;;;;;20.35;4.00;;;;;;;8.67;97.78;100511.38;5096235;28;20016;-69
2021/12/29 06:04:36;;;;;;;27.90;4.40;;;;;;;8.69;97.21;100517.13;5096240;28;20023;-69
2021/12/29 06:07:01;;;;;;;22.45;4.00;;;;;;;8.63;96.98;100518.69;5096129;28;20024;-70
2021/12/29 06:09:27;;;;;;;26.75;4.30;;;;;;;8.58;97.12;100528.72;5096157;28;20028;-70
2021/12/29 06:11:52;;;;;;;20.70;3.97;;;;;;;8.68;97.36;100528.41;5096366;28;20047;-69
2021/12/29 06:14:17;;;;;;;18.95;4.18;;;;;;;8.70;97.10;100529.03;5096055;28;20020;-70
2021/12/29 06:16:43;;;;;;;24.90;3.88;;;;;;;8.72;96.84;100532.25;5077849;28;20012;-70
2021/12/29 06:19:08;;;;;;;20.85;3.78;;;;;;;8.69;96.40;100523.09;5096517;28;20024;-69
2021/12/29 06:21:33;;;;;;;21.00;3.92;;;;;;;8.73;96.99;100531.25;5095852;28;20055;-69
2021/12/29 06:23:59;;;;;;;31.30;3.88;;;;;;;8.69;96.74;100535.16;5077715;28;20020;-70
2021/12/29 06:26:24;;;;;;;22.58;4.43;;;;;;;8.64;97.09;100534.94;5095714;28;20058;-69
2021/12/29 06:28:50;;;;;;;24.70;4.55;;;;;;;8.66;97.05;100536.34;5077622;28;20115;-69
2021/12/29 06:31:15;;;;;;;26.13;3.95;;;;;;;8.61;96.96;100530.13;5095690;28;20097;-69
2021/12/29 06:33:41;;;;;;;27.63;3.92;;;;;;;8.65;96.73;100532.16;5077471;28;20356;-69
2021/12/29 06:36:06;;;;;;;22.90;4.10;;;;;;;8.62;96.84;100537.66;5077484;28;20413;-70
2021/12/29 06:38:34;;;;;;;20.25;3.97;;;;;;;8.68;96.44;100533.56;5077398;28;20016;-69
2021/12/29 06:40:59;;;;;;;21.60;4.20;;;;;;;8.66;96.65;100544.06;5077211;28;20028;-69
2021/12/29 06:43:24;;;;;;;23.02;4.00;;;;;;;8.70;96.44;100547.88;5095992;28;20028;-69
2021/12/29 06:45:50;;;;;;;25.25;3.85;;;;;;;8.71;96.27;100551.25;5095381;28;20102;-70
2021/12/29 06:48:15;;;;;;;28.52;6.95;;;;;;;8.66;96.11;100558.72;5095275;28;20020;-69
2021/12/29 06:50:41;;;;;;;23.27;4.40;;;;;;;8.52;96.51;100544.88;5077155;28;20020;-70
2021/12/29 06:53:07;;;;;;;23.67;4.35;;;;;;;8.66;96.44;100566.44;5077060;28;20132;-70
2021/12/29 06:55:32;;;;;;;20.48;3.50;;;;;;;8.69;96.68;100568.66;5095033;28;20571;-69
2021/12/29 06:57:57;;;;;;;24.48;4.03;;;;;;;8.69;96.16;100577.19;5095440;28;20031;-70
2021/12/29 07:00:23;;;;;;;27.58;4.20;;;;;;;8.64;96.23;100578.72;5095094;28;20458;-69
2021/12/29 07:02:48;;;;;;;24.63;4.13;;;;;;;8.64;96.82;100576.13;5094966;28;20024;-68
2021/12/29 07:05:15;;;;;;;24.98;4.50;;;;;;;8.67;96.40;100584.31;5094453;28;20051;-69
2021/12/29 07:07:42;;;;;;;19.08;4.28;;;;;;;8.65;96.55;100585.47;5094825;28;20024;-70
2021/12/29 07:10:08;;;;;;;21.67;4.40;;;;;;;8.69;96.30;100586.69;5094946;28;20022;-70
2021/12/29 07:12:33;;;;;;;26.25;4.55;;;;;;;8.70;95.65;100588.31;5094831;28;20390;-69
2021/12/29 07:14:58;;;;;;;29.05;5.03;;;;;;;8.67;96.24;100584.31;5094851;28;20099;-69
2021/12/29 07:17:24;;;;;;;16.80;4.40;;;;;;;8.66;96.20;100593.03;5094708;28;20067;-69
2021/12/29 07:19:49;;;;;;;26.40;4.70;;;;;;;8.67;95.93;100591.25;5076546;28;20024;-70
2021/12/29 07:22:15;;;;;;;20.33;4.35;;;;;;;8.63;97.26;100597.69;5094661;28;20020;-70
2021/12/29 07:24:40;;;;;;;31.35;6.20;;;;;;;8.62;96.33;100593.53;5094854;28;20016;-70
2021/12/29 07:27:06;;;;;;;23.13;4.80;;;;;;;8.65;96.56;100609.44;5076338;28;20032;-70
2021/12/29 07:29:31;;;;;;;26.80;5.00;;;;;;;8.62;96.19;100621.88;5094486;28;20070;-70
2021/12/29 07:31:58;;;;;;;26.80;5.15;;;;;;;8.60;96.70;100622.03;5094454;28;20046;-70
2021/12/29 07:34:25;;;;;;;19.67;4.82;;;;;;;8.56;96.62;100618.22;5076325;28;20435;-69
2021/12/29 07:36:51;;;;;;;20.42;5.05;;;;;;;8.59;97.13;100625.59;5094456;28;20099;-71
2021/12/29 07:39:17;;;;;;;23.17;5.20;;;;;;;8.61;96.97;100622.88;5094364;28;20090;-70
2021/12/29 07:41:44;;;;;;;20.77;5.40;;;;;;;8.59;96.76;100625.59;5076134;28;20032;-70
2021/12/29 07:44:11;;;;;;;26.20;5.65;;;;;;;8.53;96.97;100637.41;5076167;28;20123;-71
2021/12/29 07:46:37;;;;;;;18.60;5.78;;;;;;;8.52;96.82;100635.81;5076038;28;20470;-70
2021/12/29 07:49:03;;;;;;;21.65;5.40;;;;;;;8.56;96.43;100626.75;5094180;28;20028;-70
2021/12/29 07:51:29;;;;;;;24.85;5.53;;;;;;;8.59;96.54;100623.81;5094329;28;20032;-70
2021/12/29 07:53:55;;;;;;;20.33;5.28;;;;;;;8.57;96.57;100630.94;5075866;28;20109;-70
2021/12/29 07:56:20;;;;;;;21.80;5.70;;;;;;;8.58;96.43;100636.91;5075681;28;20090;-70
2021/12/29 07:58:46;;;;;;;26.42;5.78;;;;;;;8.55;96.73;100632.09;5094282;28;20399;-70
2021/12/29 08:01:11;;;;;;;18.35;5.28;;;;;;;8.57;96.10;100630.13;5094078;28;20028;-70
2021/12/29 08:03:40;;;;;;;18.63;5.43;;;;;;;8.56;95.92;100631.91;5093823;28;20078;-70
2021/12/29 08:06:05;;;;;;;14.18;5.25;;;;;;;8.57;95.99;100633.53;5075587;28;20470;-70
2021/12/29 08:08:30;;;;;;;19.15;5.10;;;;;;;8.50;96.06;100631.81;5075444;28;20031;-70
2021/12/29 08:10:56;;;;;;;14.07;5.40;;;;;;;8.65;96.01;100632.63;5094277;28;20073;-70
2021/12/29 08:13:22;;;;;;;22.08;6.13;;;;;;;8.59;95.35;100634.13;5093713;28;20028;-69
2021/12/29 08:15:47;;;;;;;23.17;5.25;;;;;;;8.60;95.42;100632.34;5075353;28;20039;-70
2021/12/29 08:18:12;;;;;;;17.77;5.22;;;;;;;8.64;95.64;100627.66;5093329;28;20028;-70
2021/12/29 08:20:38;;;;;;;20.50;5.63;;;;;;;8.69;95.34;100630.47;5093993;28;20024;-70
2021/12/29 08:23:04;;;;;;;23.08;5.75;;;;;;;8.71;95.15;100641.41;5075341;28;20490;-70
2021/12/29 08:25:30;;;;;;;17.08;5.40;;;;;;;8.73;95.41;100639.47;5075328;28;20351;-70
2021/12/29 08:27:55;;;;;;;11.18;5.25;;;;;;;8.69;94.82;100631.31;5074569;28;20145;-70
2021/12/29 08:30:21;;;;;;;18.42;5.13;;;;;;;8.70;95.33;100644.97;5075370;28;20505;-71
2021/12/29 08:32:47;;;;;;;15.27;5.28;;;;;;;8.67;95.38;100645.34;5093454;28;20066;-69
2021/12/29 08:35:13;;;;;;;19.13;5.68;;;;;;;8.73;95.20;100649.78;5075194;28;20478;-70
2021/12/29 08:37:39;;;;;;;19.73;5.45;;;;;;;8.65;95.39;100640.34;5074555;28;20012;-70
2021/12/29 08:40:07;;;;;;;20.55;5.35;;;;;;;8.62;94.80;100647.63;5093173;28;20030;-70
2021/12/29 08:42:33;;;;;;;15.27;5.28;;;;;;;8.67;94.75;100653.06;5075195;28;20547;-70
2021/12/29 08:44:58;;;;;;;18.65;5.25;;;;;;;8.71;94.70;100659.44;5093369;28;20023;-70
2021/12/29 08:47:24;;;;;;;20.00;6.20;;;;;;;8.67;95.08;100651.28;5093185;28;20028;-70
2021/12/29 08:49:49;;;;;;;13.70;5.03;;;;;;;8.68;95.17;100649.50;5075082;28;20026;-70
2021/12/29 08:52:14;;;;;;;14.98;5.50;;;;;;;8.74;95.05;100651.38;5093439;28;20023;-70
2021/12/29 08:54:40;;;;;;;21.15;5.45;;;;;;;8.74;94.31;100649.59;5093081;28;20348;-70
2021/12/29 08:57:06;;;;;;;18.27;5.40;;;;;;;8.79;94.51;100657.59;5093386;28;20020;-70
2021/12/29 08:59:31;;;;;;;18.50;5.00;;;;;;;8.81;94.60;100657.41;5075039;28;20031;-70
2021/12/29 09:01:57;;;;;;;17.05;4.50;;;;;;;8.77;94.66;100653.59;5093302;28;20382;-71
2021/12/29 09:04:22;;;;;;;12.52;4.93;;;;;;;8.73;94.74;100652.34;5093414;28;20038;-71
2021/12/29 09:06:47;;;;;;;15.70;4.93;;;;;;;8.78;94.35;100637.16;5093148;28;20028;-71
2021/12/29 09:09:13;;;;;;;12.82;4.60;;;;;;;8.80;94.16;100637.75;5093044;28;20031;-69
2021/12/29 09:11:39;;;;;;;13.10;4.72;;;;;;;8.79;93.77;100643.91;5093241;28;20101;-69
2021/12/29 09:14:05;;;;;;;14.15;4.55;;;;;;;8.78;93.96;100640.53;5074876;28;20054;-70
2021/12/29 09:16:30;;;;;;;15.93;5.18;;;;;;;8.82;94.49;100639.19;5074978;28;20046;-70
2021/12/29 09:18:56;;;;;;;13.32;4.75;;;;;;;8.85;93.65;100627.72;5093135;28;20024;-70
2021/12/29 09:21:23;;;;;;;17.15;5.00;;;;;;;8.82;94.04;100633.25;5093081;28;20093;-70
2021/12/29 09:23:48;;;;;;;12.55;4.78;;;;;;;8.81;93.16;100623.91;5074851;28;20382;-70
2021/12/29 09:26:16;;;;;;;20.50;6.60;;;;;;;8.88;94.02;100631.72;5074824;28;20027;-70
2021/12/29 09:28:44;;;;;;;14.13;4.97;;;;;;;8.97;92.61;100633.22;5075966;28;20122;-70
2021/12/29 09:31:10;;;;;;;12.27;4.18;;;;;;;8.85;92.87;100630.31;5096770;28;20046;-70
2021/12/29 09:33:35;;;;;;;13.43;4.40;;;;;;;8.83;93.03;100619.38;5096741;28;20028;-70
2021/12/29 09:36:03;;;;;;;15.93;5.07;;;;;;;8.89;93.07;100631.56;5096678;28;20501;-70
2021/12/29 09:38:35;;;;;;;12.23;4.68;;;;;;;8.90;92.81;100624.63;5096571;28;20020;-70
2021/12/29 09:41:01;;;;;;;15.03;4.73;;;;;;;8.91;92.87;100628.78;5096624;28;20024;-70
2021/12/29 09:43:27;;;;;;;12.40;4.80;;;;;;;8.95;92.49;100628.25;5096523;28;20032;-70
2021/12/29 09:45:53;;;;;;;11.75;4.65;;;;;;;8.97;92.17;100628.06;5078273;28;20031;-70
2021/12/29 09:48:18;;;;;;;12.18;4.85;;;;;;;8.98;92.19;100627.09;5078231;28;20016;-70
2021/12/29 09:50:44;;;;;;;12.05;5.18;;;;;;;9.00;92.66;100632.88;5096473;28;20057;-70
2021/12/29 09:53:11;;;;;;;9.77;4.88;;;;;;;8.97;92.46;100639.16;5096310;28;20024;-69
2021/12/29 09:55:37;;;;;;;12.27;5.10;;;;;;;8.98;92.44;100638.22;5077881;28;20390;-70
2021/12/29 09:58:05;;;;;;;10.88;5.00;;;;;;;9.04;92.98;100634.13;5096193;28;20224;-70
2021/12/29 10:00:34;;;;;;;13.30;5.00;;;;;;;9.06;91.91;100633.91;5078143;28;20024;-71
2021/12/29 10:03:05;;;;;;;11.60;5.15;;;;;;;8.90;92.69;100625.41;5077940;28;20024;-71
2021/12/29 10:05:31;;;;;;;13.10;5.18;;;;;;;8.90;93.19;100638.31;5096086;28;20020;-71
2021/12/29 10:08:04;;;;;;;13.57;5.57;;;;;;;8.90;92.31;100622.03;5077886;28;20028;-71
2021/12/29 10:10:31;;;;;;;10.93;5.43;;;;;;;8.98;92.76;100619.38;5077929;28;20478;-71
2021/12/29 10:12:57;;;;;;;14.40;5.40;;;;;;;8.89;93.17;100616.09;5096175;28;20093;-71
2021/12/29 10:15:30;;;;;;;15.45;5.95;;;;;;;9.00;92.82;100602.72;5095828;28;20032;-71
2021/12/29 10:18:05;;;;;;;12.07;5.75;;;;;;;8.74;93.05;100587.75;5095846;28;20026;-71
2021/12/29 10:20:30;;;;;;;15.02;6.18;;;;;;;8.94;92.40;100592.34;5077594;28;20454;-70
2021/12/29 10:22:58;;;;;;;15.93;5.43;;;;;;;8.98;92.04;100598.75;5077596;28;20031;-71
2021/12/29 10:25:24;;;;;;;13.18;5.53;;;;;;;8.95;92.40;100588.81;5077545;28;20470;-70
2021/12/29 10:27:53;;;;;;;19.38;5.85;;;;;;;9.05;92.39;100589.31;5095762;28;20026;-70
2021/12/29 10:30:23;;;;;;;15.07;5.72;;;;;;;9.02;91.95;100594.81;5095807;28;20034;-70
2021/12/29 10:32:49;;;;;;;15.82;7.88;;;;;;;9.00;92.46;100595.00;5095860;28;20030;-70
2021/12/29 10:35:25;;;;;;;15.13;5.88;;;;;;;9.04;92.26;100591.09;5095726;28;20099;-69
2021/12/29 10:37:52;;;;;;;16.70;6.45;;;;;;;9.15;92.04;100587.25;5095925;28;20044;-70
2021/12/29 10:40:29;;;;;;;14.25;5.63;;;;;;;9.13;91.88;100593.56;5076378;28;20028;-70
2021/12/29 10:42:58;;;;;;;12.35;6.07;;;;;;;9.33;91.85;100596.34;5077340;28;20031;-70
2021/12/29 10:45:36;;;;;;;12.02;5.40;;;;;;;9.30;91.93;100594.94;5095837;28;20023;-70
2021/12/29 10:48:16;;;;;;;11.55;5.50;;;;;;;9.20;91.59;100586.69;5076884;28;20016;-70
2021/12/29 10:50:52;;;;;;;10.13;5.50;;;;;;;9.29;91.70;100590.75;5095334;28;20031;-70
2021/12/29 10:53:20;;;;;;;15.02;6.40;;;;;;;9.36;90.98;100589.03;5095138;28;20143;-70
2021/12/29 10:55:46;;;;;;;13.25;5.97;;;;;;;9.44;90.87;100575.25;5095281;28;20044;-70
2021/12/29 10:58:17;;;;;;;15.20;5.97;;;;;;;9.46;90.89;100594.69;5076313;28;20470;-70
2021/12/29 11:00:46;;;;;;;13.88;6.22;;;;;;;9.09;92.08;100592.31;5094470;28;20020;-70
2021/12/29 11:03:19;;;;;;;14.13;6.70;;;;;;;9.19;91.96;100598.78;5094986;28;20027;-69
2021/12/29 11:05:47;;;;;;;17.05;6.43;;;;;;;9.32;91.29;100625.69;5095283;28;20028;-70
2021/12/29 11:08:13;;;;;;;12.82;6.05;;;;;;;9.31;91.43;100626.69;5094800;28;20056;-70
2021/12/29 11:10:38;;;;;;;12.77;5.90;;;;;;;9.24;91.27;100627.41;5076658;28;20494;-71
2021/12/29 11:13:04;;;;;;;18.58;6.22;;;;;;;9.33;90.52;100617.00;5094808;28;20111;-70
2021/12/29 11:15:34;;;;;;;12.70;6.57;;;;;;;9.31;90.48;100616.38;5095307;28;20032;-70
2021/12/29 11:18:06;;;;;;;14.38;5.97;;;;;;;9.27;90.12;100623.66;5094762;28;20031;-70
2021/12/29 11:20:34;;;;;;;12.05;6.28;;;;;;;9.23;90.26;100612.91;5095217;28;20031;-71
2021/12/29 11:23:13;;;;;;;14.23;6.47;;;;;;;9.11;90.04;100611.00;5076519;28;20028;-70
2021/12/29 11:25:40;;;;;;;15.23;7.18;;;;;;;9.08;90.08;100595.88;5094733;28;20035;-70
2021/12/29 11:28:07;;;;;;;15.27;6.82;;;;;;;9.12;90.47;100589.38;5094854;28;20035;-69